Time;durP1;ratioP1;P1;durP2;ratioP2;P2;SDS_P1;SDS_P2;PMS_P1;PMS_P2;Temp;Humidity;BMP_temperature;BMP_pressure;BME280_temperature;BME280_humidity;BME280_pressure;Samples;Min_cycle;Max_cycle;Signal;HPM_P1;HPM_P2
2021/12/12 00:00:55;;;;;;;;;;;1.00;99.90;;;;;;5033095;28;19920;-84
2021/12/12 00:03:36;;;;;;;;;;;1.00;99.90;;;;;;5034373;28;19917;-82
2021/12/12 00:06:04;;;;;;;;;;;1.00;99.90;;;;;;5034409;28;19913;-80
2021/12/12 00:08:29;;;;;;;;;;;1.00;99.90;;;;;;5034605;28;19913;-80
2021/12/12 00:10:57;;;;;;;;;;;1.00;99.90;;;;;;5027734;28;19920;-82
2021/12/12 00:13:25;;;;;;;;;;;1.00;99.90;;;;;;5034799;28;19915;-80
2021/12/12 00:15:50;;;;;;;;;;;1.00;99.90;;;;;;5032767;28;19974;-80
2021/12/12 00:18:16;;;;;;;;;;;0.90;99.90;;;;;;5026911;28;19913;-82
2021/12/12 00:20:42;;;;;;;;;;;0.90;99.90;;;;;;5032519;28;20319;-81
2021/12/12 00:23:08;;;;;;;;;;;0.90;99.90;;;;;;5029982;28;19908;-80
2021/12/12 00:25:36;;;;;;;;;;;0.90;99.90;;;;;;5017546;28;20376;-82
2021/12/12 00:28:03;;;;;;;;;;;0.90;99.90;;;;;;5035330;28;19953;-84
2021/12/12 00:30:28;;;;;;;;;;;0.90;99.90;;;;;;5000770;28;19917;-82
2021/12/12 00:32:54;;;;;;;;;;;0.90;99.90;;;;;;5033134;28;20361;-79
2021/12/12 00:35:20;;;;;;;;;;;0.80;99.90;;;;;;5029903;28;19913;-80
2021/12/12 00:37:47;;;;;;;;;;;0.70;99.90;;;;;;5029802;28;20279;-81
2021/12/12 00:40:19;;;;;;;;;;;0.60;99.90;;;;;;5032806;28;19917;-80
2021/12/12 00:42:45;;;;;;;;;;;0.50;99.90;;;;;;5016414;28;19959;-80
2021/12/12 00:45:13;;;;;;;;;;;0.40;99.90;;;;;;5017285;28;19913;-80
2021/12/12 00:47:41;;;;;;;;;;;0.30;99.90;;;;;;5034128;28;20428;-79
2021/12/12 00:50:09;;;;;;;;;;;0.30;99.90;;;;;;5030641;28;19924;-82
2021/12/12 00:52:35;;;;;;;;;;;0.40;99.90;;;;;;5016366;28;19913;-82
2021/12/12 00:55:01;;;;;;;;;;;0.30;99.90;;;;;;5023169;28;20027;-81
2021/12/12 00:57:27;;;;;;;;;;;0.30;99.90;;;;;;5028621;28;20394;-82
2021/12/12 00:59:52;;;;;;;;;;;0.30;99.90;;;;;;5049578;28;19924;-79
2021/12/12 01:02:21;;;;;;;;;;;0.30;99.90;;;;;;5055969;28;19910;-80
2021/12/12 01:04:49;;;;;;;;;;;0.20;99.90;;;;;;5044942;28;19904;-82
2021/12/12 01:07:17;;;;;;;;;;;0.20;99.90;;;;;;5020044;28;19943;-78
2021/12/12 01:09:46;;;;;;;;;;;0.20;99.90;;;;;;5056915;28;19913;-81
2021/12/12 01:12:15;;;;;;;;;;;0.20;99.90;;;;;;5055997;28;19917;-81
2021/12/12 01:14:43;;;;;;;;;;;0.20;99.90;;;;;;5028404;28;19917;-86
2021/12/12 01:17:37;;;;;;;;;;;0.10;99.90;;;;;;5034170;28;19909;-80
2021/12/12 01:20:14;;;;;;;;;;;0.00;99.90;;;;;;5031871;28;19909;-82
2021/12/12 01:22:39;;;;;;;;;;;-0.10;99.90;;;;;;5024026;28;19991;-82
2021/12/12 01:25:11;;;;;;;;;;;0.00;99.90;;;;;;5033929;28;19952;-82
2021/12/12 01:27:37;;;;;;;;;;;0.00;99.90;;;;;;5032301;28;19913;-83
2021/12/12 01:30:04;;;;;;;;;;;0.10;99.90;;;;;;5033420;28;20008;-82
2021/12/12 01:32:33;;;;;;;;;;;0.20;99.90;;;;;;5032479;28;19959;-82
2021/12/12 01:34:59;;;;;;;;;;;0.30;99.90;;;;;;5032929;28;20698;-83
2021/12/12 01:40:02;;;;;;;;;;;0.40;99.90;;;;;;5032561;28;19921;-82
2021/12/12 01:42:31;;;;;;;;;;;0.40;99.90;;;;;;5032651;28;19909;-82
2021/12/12 01:44:59;;;;;;;;;;;0.50;99.90;;;;;;5033066;28;20431;-85
2021/12/12 01:47:32;;;;;;;;;;;0.50;99.90;;;;;;5032397;28;20024;-79
2021/12/12 01:50:02;;;;;;;;;;;0.50;99.90;;;;;;5033804;28;19993;-84
2021/12/12 01:52:28;;;;;;;;;;;0.50;99.90;;;;;;5030051;28;19909;-82
2021/12/12 01:54:58;;;;;;;;;;;0.50;99.90;;;;;;5034307;28;19908;-79
2021/12/12 01:57:32;;;;;;;;;;;0.60;99.90;;;;;;5032412;28;19915;-84
2021/12/12 01:59:59;;;;;;;;;;;0.60;99.90;;;;;;5031869;28;19921;-82
2021/12/12 02:02:29;;;;;;;;;;;0.70;99.90;;;;;;5054589;28;19920;-82
2021/12/12 02:04:57;;;;;;;;;;;0.70;99.90;;;;;;5054467;28;19909;-78
2021/12/12 02:07:24;;;;;;;;;;;0.80;99.90;;;;;;5033201;28;19959;-82
2021/12/12 02:09:50;;;;;;;;;;;0.80;99.90;;;;;;5027945;28;19956;-82
2021/12/12 02:12:19;;;;;;;;;;;0.80;99.90;;;;;;5032222;28;20426;-81
2021/12/12 02:14:45;;;;;;;;;;;0.80;99.90;;;;;;5030971;28;19997;-83
2021/12/12 02:17:17;;;;;;;;;;;0.80;99.90;;;;;;5028038;28;20363;-81
2021/12/12 02:20:08;;;;;;;;;;;0.80;99.90;;;;;;5013581;28;19913;-82
2021/12/12 02:22:51;;;;;;;;;;;0.90;99.90;;;;;;5024820;28;19920;-81
2021/12/12 02:35:56;;;;;;;;;;;0.90;99.90;;;;;;5027491;28;19963;-81
2021/12/12 02:38:29;;;;;;;;;;;0.90;99.90;;;;;;5031902;28;19917;-83
2021/12/12 02:40:57;;;;;;;;;;;0.90;99.90;;;;;;5031449;28;20244;-83
2021/12/12 02:43:25;;;;;;;;;;;0.90;99.90;;;;;;5017465;28;19913;-84
2021/12/12 02:45:54;;;;;;;;;;;0.90;99.90;;;;;;5016398;28;20323;-84
2021/12/12 02:48:24;;;;;;;;;;;0.90;99.90;;;;;;5031745;28;19948;-84
2021/12/12 02:50:50;;;;;;;;;;;0.90;99.90;;;;;;5031556;28;19988;-84
2021/12/12 02:53:21;;;;;;;;;;;0.90;99.90;;;;;;5028724;28;19958;-82
2021/12/12 02:55:49;;;;;;;;;;;0.80;99.90;;;;;;5031420;28;20358;-82
2021/12/12 02:58:16;;;;;;;;;;;0.80;99.90;;;;;;5031888;28;20003;-85
2021/12/12 03:00:48;;;;;;;;;;;0.80;99.90;;;;;;5026494;28;19920;-80
2021/12/12 03:03:14;;;;;;;;;;;0.80;99.90;;;;;;5013116;28;19909;-84
2021/12/12 03:05:42;;;;;;;;;;;0.70;99.90;;;;;;5017812;28;20387;-83
2021/12/12 03:08:08;;;;;;;;;;;0.80;99.90;;;;;;5013275;28;20407;-85
2021/12/12 03:10:38;;;;;;;;;;;0.80;99.90;;;;;;5035524;28;19913;-83
2021/12/12 03:13:05;;;;;;;;;;;0.80;99.90;;;;;;5035351;28;20015;-82
2021/12/12 03:15:34;;;;;;;;;;;0.70;99.90;;;;;;5035465;28;20372;-83
2021/12/12 03:18:01;;;;;;;;;;;0.80;99.90;;;;;;5035556;28;19925;-82
2021/12/12 03:20:31;;;;;;;;;;;0.80;99.90;;;;;;5034243;28;19917;-83
2021/12/12 03:22:59;;;;;;;;;;;0.80;99.90;;;;;;5016809;28;19975;-85
2021/12/12 03:25:30;;;;;;;;;;;0.80;99.90;;;;;;5033669;28;19909;-82
2021/12/12 03:27:56;;;;;;;;;;;0.80;99.90;;;;;;5039717;28;19913;-80
2021/12/12 03:30:21;;;;;;;;;;;0.70;99.90;;;;;;5043950;28;19917;-83
2021/12/12 03:32:47;;;;;;;;;;;0.70;99.90;;;;;;5042379;28;19940;-83
2021/12/12 03:35:13;;;;;;;;;;;0.70;99.90;;;;;;5044648;28;19962;-84
2021/12/12 03:37:39;;;;;;;;;;;0.70;99.90;;;;;;5025677;28;19905;-79
2021/12/12 03:40:10;;;;;;;;;;;0.70;99.90;;;;;;5041401;28;19923;-80
2021/12/12 03:42:36;;;;;;;;;;;0.70;99.90;;;;;;5042510;28;20015;-82
2021/12/12 03:45:02;;;;;;;;;;;0.70;99.90;;;;;;5041821;28;19936;-80
2021/12/12 03:47:34;;;;;;;;;;;0.70;99.90;;;;;;5033268;28;19913;-83
2021/12/12 03:50:03;;;;;;;;;;;0.70;99.90;;;;;;5016343;28;20309;-83
2021/12/12 03:52:28;;;;;;;;;;;0.80;99.90;;;;;;5025437;28;20399;-83
2021/12/12 03:54:58;;;;;;;;;;;0.80;99.90;;;;;;5034517;28;19909;-83
2021/12/12 03:57:23;;;;;;;;;;;0.80;99.90;;;;;;5032585;28;19986;-83
2021/12/12 03:59:49;;;;;;;;;;;0.80;99.90;;;;;;5034798;28;20368;-82
2021/12/12 04:02:15;;;;;;;;;;;0.80;99.90;;;;;;5034192;28;19920;-81
2021/12/12 04:04:41;;;;;;;;;;;0.70;99.90;;;;;;5034680;28;19999;-83
2021/12/12 04:07:11;;;;;;;;;;;0.80;99.90;;;;;;5034739;28;19917;-83
2021/12/12 04:09:37;;;;;;;;;;;0.80;99.90;;;;;;5025767;28;19921;-83
2021/12/12 04:12:04;;;;;;;;;;;0.80;99.90;;;;;;5032711;28;20261;-84
2021/12/12 04:14:30;;;;;;;;;;;0.80;99.90;;;;;;5034223;28;19996;-84
2021/12/12 04:16:57;;;;;;;;;;;0.80;99.90;;;;;;5016795;28;20011;-82
2021/12/12 04:19:24;;;;;;;;;;;0.80;99.90;;;;;;5034164;28;19909;-81
2021/12/12 04:21:50;;;;;;;;;;;0.80;99.90;;;;;;5031664;28;20012;-84
2021/12/12 04:24:20;;;;;;;;;;;0.70;99.90;;;;;;5034345;28;19956;-81
2021/12/12 04:26:46;;;;;;;;;;;0.70;99.90;;;;;;5034159;28;19923;-82
2021/12/12 04:29:19;;;;;;;;;;;0.60;99.90;;;;;;5014727;28;19913;-84
2021/12/12 04:31:48;;;;;;;;;;;0.50;99.90;;;;;;5032958;28;19928;-83
2021/12/12 04:34:14;;;;;;;;;;;0.50;99.90;;;;;;5037971;28;20382;-82
2021/12/12 04:36:41;;;;;;;;;;;0.60;99.90;;;;;;5016170;28;20055;-81
2021/12/12 04:39:10;;;;;;;;;;;0.60;99.90;;;;;;5016262;28;19920;-82
2021/12/12 04:41:36;;;;;;;;;;;0.60;99.90;;;;;;5015898;28;19916;-84
2021/12/12 04:44:02;;;;;;;;;;;0.50;99.90;;;;;;5014858;28;19917;-83
2021/12/12 04:46:38;;;;;;;;;;;0.50;99.90;;;;;;5030108;28;19917;-83
2021/12/12 04:52:00;;;;;;;;;;;0.30;99.90;;;;;;5034718;28;19920;-83
2021/12/12 04:54:44;;;;;;;;;;;0.40;99.90;;;;;;5034066;28;19913;-82
2021/12/12 04:57:15;;;;;;;;;;;0.40;99.90;;;;;;5034329;28;19909;-83
2021/12/12 04:59:42;;;;;;;;;;;0.50;99.90;;;;;;5031141;28;19913;-83
2021/12/12 05:02:14;;;;;;;;;;;0.50;99.90;;;;;;5015535;28;19913;-82
2021/12/12 05:04:59;;;;;;;;;;;0.50;99.90;;;;;;5033597;28;20322;-83
2021/12/12 05:07:33;;;;;;;;;;;0.50;99.90;;;;;;5030204;28;19944;-83
2021/12/12 05:10:21;;;;;;;;;;;0.40;99.90;;;;;;5033544;28;19963;-83
2021/12/12 05:13:01;;;;;;;;;;;0.40;99.90;;;;;;5015458;28;19909;-82
2021/12/12 05:15:47;;;;;;;;;;;0.30;99.90;;;;;;5031396;28;20025;-84
2021/12/12 05:18:12;;;;;;;;;;;0.30;99.90;;;;;;5033616;28;19909;-84
2021/12/12 05:20:41;;;;;;;;;;;0.20;99.90;;;;;;5033310;28;20239;-85
2021/12/12 05:23:09;;;;;;;;;;;0.10;99.90;;;;;;5032015;28;19917;-85
2021/12/12 05:25:38;;;;;;;;;;;0.10;99.90;;;;;;5049097;28;19916;-83
2021/12/12 05:28:04;;;;;;;;;;;0.00;99.90;;;;;;5054920;28;19913;-81
2021/12/12 05:30:32;;;;;;;;;;;-0.10;99.90;;;;;;5033200;28;19912;-82
2021/12/12 05:33:00;;;;;;;;;;;-0.20;99.90;;;;;;5032283;28;19999;-83
2021/12/12 05:35:28;;;;;;;;;;;-0.30;99.90;;;;;;5032947;28;19913;-84
2021/12/12 05:37:55;;;;;;;;;;;-0.30;99.90;;;;;;5014641;28;19916;-84
2021/12/12 05:40:22;;;;;;;;;;;-0.50;99.90;;;;;;5032681;28;19964;-82
2021/12/12 05:42:51;;;;;;;;;;;-0.60;99.90;;;;;;5017734;28;20372;-83
2021/12/12 05:45:16;;;;;;;;;;;-0.70;99.90;;;;;;5028085;28;20008;-84
2021/12/12 05:47:43;;;;;;;;;;;-0.80;99.90;;;;;;5032093;28;20007;-81
2021/12/12 05:50:09;;;;;;;;;;;-0.90;99.90;;;;;;5033073;28;19916;-83
2021/12/12 05:52:35;;;;;;;;;;;-0.80;99.90;;;;;;5032308;28;19974;-82
2021/12/12 05:55:01;;;;;;;;;;;-0.90;99.90;;;;;;5032728;28;19909;-85
2021/12/12 05:57:28;;;;;;;;;;;-1.00;99.90;;;;;;5023507;28;19917;-83
2021/12/12 05:59:54;;;;;;;;;;;-1.10;99.90;;;;;;5032367;28;19952;-85
2021/12/12 06:02:21;;;;;;;;;;;-1.10;99.90;;;;;;5029058;28;20372;-85
2021/12/12 06:04:46;;;;;;;;;;;-1.00;99.90;;;;;;5030931;28;19913;-87
2021/12/12 06:07:14;;;;;;;;;;;-1.10;99.90;;;;;;5035261;28;19924;-83
2021/12/12 06:09:40;;;;;;;;;;;-1.30;99.90;;;;;;5032200;28;19917;-85
2021/12/12 06:12:06;;;;;;;;;;;-1.40;99.90;;;;;;5020635;28;19928;-85
2021/12/12 06:14:32;;;;;;;;;;;-1.40;99.90;;;;;;5031133;28;20376;-87
2021/12/12 06:17:00;;;;;;;;;;;-1.40;99.90;;;;;;5029125;28;20378;-84
2021/12/12 06:19:27;;;;;;;;;;;-1.40;99.90;;;;;;5013645;28;19913;-88
2021/12/12 06:21:54;;;;;;;;;;;-1.40;99.90;;;;;;5030588;28;19921;-85
2021/12/12 06:24:21;;;;;;;;;;;-1.30;99.90;;;;;;5014433;28;20388;-85
2021/12/12 06:26:46;;;;;;;;;;;-1.40;99.90;;;;;;5034603;28;19917;-83
2021/12/12 06:29:12;;;;;;;;;;;-1.50;99.90;;;;;;5031022;28;19923;-87
2021/12/12 06:31:39;;;;;;;;;;;-1.40;99.90;;;;;;5030481;28;19936;-82
2021/12/12 06:34:05;;;;;;;;;;;-1.50;99.90;;;;;;5031955;28;19936;-82
2021/12/12 06:36:31;;;;;;;;;;;-1.60;99.90;;;;;;5030485;28;20399;-83
2021/12/12 06:38:57;;;;;;;;;;;-1.60;99.90;;;;;;5031208;28;19960;-85
2021/12/12 06:41:23;;;;;;;;;;;-1.70;99.90;;;;;;5029234;28;19960;-84
2021/12/12 06:43:49;;;;;;;;;;;-1.70;99.90;;;;;;5031910;28;20292;-86
2021/12/12 06:46:15;;;;;;;;;;;-1.60;99.90;;;;;;5028969;28;19918;-81
2021/12/12 06:48:41;;;;;;;;;;;-1.60;99.90;;;;;;5012791;28;19905;-83
2021/12/12 06:51:08;;;;;;;;;;;-1.50;99.90;;;;;;5030320;28;19924;-84
2021/12/12 06:53:34;;;;;;;;;;;-1.20;99.90;;;;;;5031848;28;20431;-83
2021/12/12 06:56:02;;;;;;;;;;;-1.00;99.90;;;;;;5015175;28;20376;-81
2021/12/12 06:58:29;;;;;;;;;;;-0.90;99.90;;;;;;5015943;28;19909;-84
2021/12/12 07:00:56;;;;;;;;;;;-0.80;99.90;;;;;;5030815;28;19948;-81
2021/12/12 07:03:22;;;;;;;;;;;-0.80;99.90;;;;;;5012690;28;19917;-84
2021/12/12 07:05:48;;;;;;;;;;;-0.80;99.90;;;;;;5014482;28;19917;-83
2021/12/12 07:08:15;;;;;;;;;;;-0.70;99.90;;;;;;4994516;28;20284;-86
2021/12/12 07:10:41;;;;;;;;;;;-0.70;99.90;;;;;;5030640;28;19913;-84
2021/12/12 07:13:07;;;;;;;;;;;-0.80;99.90;;;;;;5028971;28;19927;-85
2021/12/12 07:15:36;;;;;;;;;;;-0.90;99.90;;;;;;5030430;28;19913;-84
2021/12/12 07:18:05;;;;;;;;;;;-0.90;99.90;;;;;;5030826;28;19919;-87
2021/12/12 07:20:31;;;;;;;;;;;-1.00;99.90;;;;;;5009103;28;19913;-84
2021/12/12 07:22:56;;;;;;;;;;;-1.10;99.90;;;;;;5030085;28;19920;-86
2021/12/12 07:25:22;;;;;;;;;;;-1.10;99.90;;;;;;5016569;28;19917;-86
2021/12/12 07:27:51;;;;;;;;;;;-1.20;99.90;;;;;;5029784;28;19917;-87
2021/12/12 07:30:17;;;;;;;;;;;-1.10;99.90;;;;;;5029095;28;19912;-86
2021/12/12 07:32:43;;;;;;;;;;;-1.20;99.90;;;;;;5003951;28;19980;-85
2021/12/12 07:35:10;;;;;;;;;;;-1.20;99.90;;;;;;5029065;28;19913;-85
2021/12/12 07:37:36;;;;;;;;;;;-1.10;99.90;;;;;;5030459;28;20373;-85
2021/12/12 07:40:03;;;;;;;;;;;-1.10;99.90;;;;;;4993319;28;19928;-86
2021/12/12 07:42:30;;;;;;;;;;;-1.10;99.90;;;;;;5010345;28;19921;-88
2021/12/12 07:44:55;;;;;;;;;;;-1.10;99.90;;;;;;5011826;28;20016;-85
2021/12/12 07:47:21;;;;;;;;;;;-1.00;99.90;;;;;;5008533;28;20004;-84
2021/12/12 07:49:48;;;;;;;;;;;-1.00;99.90;;;;;;5029371;28;20376;-86
2021/12/12 07:52:16;;;;;;;;;;;-0.90;99.90;;;;;;5009313;28;20495;-84
2021/12/12 07:54:42;;;;;;;;;;;-0.90;99.90;;;;;;5011162;28;20179;-87
2021/12/12 07:57:07;;;;;;;;;;;-1.00;99.90;;;;;;5030256;28;19921;-86
2021/12/12 07:59:34;;;;;;;;;;;-1.10;99.90;;;;;;5014092;28;19999;-86
2021/12/12 08:02:02;;;;;;;;;;;-1.00;99.90;;;;;;5013960;28;19963;-87
2021/12/12 08:04:30;;;;;;;;;;;-1.00;99.90;;;;;;5015013;28;19916;-88
2021/12/12 08:06:56;;;;;;;;;;;-0.90;99.90;;;;;;5011882;28;19960;-86
2021/12/12 08:09:22;;;;;;;;;;;-1.00;99.90;;;;;;5012118;28;19921;-84
2021/12/12 08:11:48;;;;;;;;;;;-1.00;99.90;;;;;;5014747;28;19996;-87
2021/12/12 08:14:25;;;;;;;;;;;-0.80;99.90;;;;;;5011157;28;19964;-84
2021/12/12 08:16:52;;;;;;;;;;;-0.80;99.90;;;;;;5025781;28;19913;-85
2021/12/12 08:19:19;;;;;;;;;;;-0.80;99.90;;;;;;5014839;28;19913;-85
2021/12/12 08:21:46;;;;;;;;;;;-0.70;99.90;;;;;;5012222;28;19943;-88
2021/12/12 08:24:13;;;;;;;;;;;-0.70;99.90;;;;;;4996400;28;20499;-86
2021/12/12 08:26:40;;;;;;;;;;;-0.60;99.90;;;;;;5012593;28;20372;-85
2021/12/12 08:29:09;;;;;;;;;;;-0.70;99.90;;;;;;5014814;28;19914;-84
2021/12/12 08:31:35;;;;;;;;;;;-0.60;99.90;;;;;;5009952;28;20360;-85
2021/12/12 08:34:01;;;;;;;;;;;-0.50;99.90;;;;;;5012970;28;19949;-86
2021/12/12 08:36:27;;;;;;;;;;;-0.40;99.90;;;;;;5008118;28;19969;-86
2021/12/12 08:38:52;;;;;;;;;;;-0.50;99.90;;;;;;5010352;28;19917;-85
2021/12/12 08:41:19;;;;;;;;;;;-0.40;99.90;;;;;;5031681;28;19917;-87
2021/12/12 08:43:44;;;;;;;;;;;-0.30;99.90;;;;;;5027288;28;19948;-86
2021/12/12 08:46:12;;;;;;;;;;;-0.30;99.90;;;;;;5031262;28;19948;-85
2021/12/12 08:48:40;;;;;;;;;;;-0.20;99.90;;;;;;5029473;28;19948;-83
2021/12/12 08:51:12;;;;;;;;;;;-0.10;99.90;;;;;;5055289;28;19909;-84
2021/12/12 08:53:40;;;;;;;;;;;0.00;99.90;;;;;;5038267;28;19974;-86
2021/12/12 08:56:09;;;;;;;;;;;0.00;99.90;;;;;;5031765;28;20088;-85
2021/12/12 08:58:36;;;;;;;;;;;0.00;99.90;;;;;;5031569;28;19909;-87
2021/12/12 09:01:06;;;;;;;;;;;0.10;99.90;;;;;;5030873;28;19913;-88
2021/12/12 09:03:39;;;;;;;;;;;0.10;99.90;;;;;;5024606;28;19925;-86
2021/12/12 09:06:05;;;;;;;;;;;0.20;99.90;;;;;;5033172;28;19920;-88
2021/12/12 09:08:47;;;;;;;;;;;0.20;99.90;;;;;;5035751;28;19917;-87
2021/12/12 09:11:49;;;;;;;;;;;0.10;99.90;;;;;;5033913;28;19909;-84
2021/12/12 09:14:20;;;;;;;;;;;0.20;99.90;;;;;;4971502;28;19916;-88
2021/12/12 09:17:04;;;;;;;;;;;0.30;99.90;;;;;;5024373;28;19983;-88
2021/12/12 09:19:37;;;;;;;;;;;0.40;99.90;;;;;;5022185;28;19963;-87
2021/12/12 09:22:02;;;;;;;;;;;0.40;99.90;;;;;;5031505;28;20461;-89
2021/12/12 09:24:44;;;;;;;;;;;0.40;99.90;;;;;;5015990;28;20399;-82
2021/12/12 09:27:11;;;;;;;;;;;0.40;99.90;;;;;;5031461;28;20005;-87
2021/12/12 09:29:41;;;;;;;;;;;0.40;99.90;;;;;;5015855;28;20016;-90
2021/12/12 09:32:26;;;;;;;;;;;0.50;99.90;;;;;;5034187;28;20326;-89
2021/12/12 09:35:01;;;;;;;;;;;0.60;99.90;;;;;;5030059;28;19932;-87
2021/12/12 09:37:36;;;;;;;;;;;0.80;99.90;;;;;;5030117;28;19923;-88
2021/12/12 09:40:08;;;;;;;;;;;0.90;99.90;;;;;;5029916;28;19921;-84
2021/12/12 09:42:49;;;;;;;;;;;1.20;99.90;;;;;;5030785;28;19912;-86
2021/12/12 09:45:28;;;;;;;;;;;1.50;99.90;;;;;;5031278;28;19917;-86
2021/12/12 09:48:13;;;;;;;;;;;1.90;99.90;;;;;;5012029;28;19916;-84
2021/12/12 09:53:56;;;;;;;;;;;1.90;99.90;;;;;;5031764;28;20414;-86
2021/12/12 09:56:45;;;;;;;;;;;1.80;99.90;;;;;;5030148;28;19979;-85
2021/12/12 09:59:27;;;;;;;;;;;2.00;99.90;;;;;;5032348;28;19916;-89
2021/12/12 10:02:12;;;;;;;;;;;1.90;99.90;;;;;;5025380;28;19982;-89
2021/12/12 10:04:40;;;;;;;;;;;1.90;99.90;;;;;;5028439;28;19913;-89
2021/12/12 10:07:23;;;;;;;;;;;1.90;99.90;;;;;;5027943;28;19948;-87
2021/12/12 10:09:49;;;;;;;;;;;1.90;99.90;;;;;;5012764;28;19908;-87
2021/12/12 10:12:16;;;;;;;;;;;2.10;99.90;;;;;;5032093;28;20292;-90
2021/12/12 10:14:45;;;;;;;;;;;2.10;99.90;;;;;;5031765;28;20007;-88
2021/12/12 10:17:13;;;;;;;;;;;2.40;99.90;;;;;;5031338;28;19917;-87
2021/12/12 10:19:43;;;;;;;;;;;2.50;99.90;;;;;;5030008;28;19909;-85
2021/12/12 10:22:15;;;;;;;;;;;2.40;99.90;;;;;;5030323;28;19909;-87
2021/12/12 10:24:44;;;;;;;;;;;2.60;99.90;;;;;;5028131;28;20360;-86
2021/12/12 10:27:12;;;;;;;;;;;2.70;99.90;;;;;;5029653;28;19935;-89
2021/12/12 10:29:59;;;;;;;;;;;2.70;99.90;;;;;;5030315;28;20368;-81
2021/12/12 10:32:32;;;;;;;;;;;3.10;99.90;;;;;;5027151;28;20028;-83
2021/12/12 10:35:09;;;;;;;;;;;3.00;99.90;;;;;;5014428;28;19961;-84
2021/12/12 10:37:54;;;;;;;;;;;3.00;99.90;;;;;;5020196;28;19913;-82
2021/12/12 10:40:27;;;;;;;;;;;2.90;99.90;;;;;;5007674;28;20405;-83
2021/12/12 10:42:56;;;;;;;;;;;2.80;99.90;;;;;;5009638;28;19913;-82
2021/12/12 10:45:24;;;;;;;;;;;2.60;99.90;;;;;;5012634;28;19915;-85
2021/12/12 10:47:50;;;;;;;;;;;2.70;99.90;;;;;;5012853;28;19917;-84
2021/12/12 10:50:15;;;;;;;;;;;2.60;99.90;;;;;;5008512;28;20435;-85
2021/12/12 10:52:44;;;;;;;;;;;2.80;99.90;;;;;;5010135;28;20412;-84
2021/12/12 10:55:20;;;;;;;;;;;2.70;99.90;;;;;;5011412;28;19910;-83
2021/12/12 10:57:54;;;;;;;;;;;2.80;99.90;;;;;;5011049;28;19918;-84
2021/12/12 11:00:23;;;;;;;;;;;2.80;99.90;;;;;;5004617;28;20352;-83
2021/12/12 11:03:09;;;;;;;;;;;2.80;99.90;;;;;;5007152;28;19905;-84
2021/12/12 11:05:34;;;;;;;;;;;2.80;99.90;;;;;;5010815;28;19963;-83
2021/12/12 11:08:10;;;;;;;;;;;2.70;99.90;;;;;;5027471;28;19917;-84
2021/12/12 11:10:37;;;;;;;;;;;2.70;99.90;;;;;;5012109;28;19979;-85
2021/12/12 11:13:29;;;;;;;;;;;2.80;99.90;;;;;;5016006;28;20007;-82
2021/12/12 11:16:01;;;;;;;;;;;2.90;99.90;;;;;;5007380;28;19960;-85
2021/12/12 11:18:47;;;;;;;;;;;3.10;99.90;;;;;;5012055;28;19916;-81
2021/12/12 11:21:20;;;;;;;;;;;3.30;99.90;;;;;;5027541;28;19917;-85
2021/12/12 11:24:00;;;;;;;;;;;3.30;99.90;;;;;;5002462;28;20545;-82
2021/12/12 11:26:40;;;;;;;;;;;3.20;99.90;;;;;;5008954;28;19932;-83
2021/12/12 11:29:26;;;;;;;;;;;3.10;99.90;;;;;;5014889;28;20377;-86
2021/12/12 11:31:55;;;;;;;;;;;3.30;99.90;;;;;;5011766;28;20432;-83
2021/12/12 11:34:24;;;;;;;;;;;3.10;99.90;;;;;;5027080;28;19914;-86
2021/12/12 11:36:57;;;;;;;;;;;3.00;99.90;;;;;;5014508;28;19995;-83
2021/12/12 11:39:27;;;;;;;;;;;2.90;99.90;;;;;;5017241;28;19978;-82
2021/12/12 11:41:53;;;;;;;;;;;2.70;99.90;;;;;;5032352;28;19963;-83
2021/12/12 11:44:28;;;;;;;;;;;2.90;99.90;;;;;;5034996;28;20328;-84
2021/12/12 11:46:57;;;;;;;;;;;3.00;99.90;;;;;;5038914;28;19923;-81
2021/12/12 11:49:24;;;;;;;;;;;2.90;99.90;;;;;;5035467;28;19952;-84
2021/12/12 11:52:01;;;;;;;;;;;2.90;99.90;;;;;;5035106;28;19948;-83
2021/12/12 11:54:41;;;;;;;;;;;3.10;99.90;;;;;;5032701;28;19974;-83
2021/12/12 11:57:13;;;;;;;;;;;3.00;99.90;;;;;;5032894;28;19913;-81
2021/12/12 11:59:44;;;;;;;;;;;3.10;99.90;;;;;;5033777;28;19909;-84
2021/12/12 12:02:13;;;;;;;;;;;3.10;99.90;;;;;;5022432;28;19913;-85
2021/12/12 12:04:52;;;;;;;;;;;3.20;99.90;;;;;;5030338;28;20000;-83
2021/12/12 12:07:20;;;;;;;;;;;3.30;99.90;;;;;;5030483;28;19917;-85
2021/12/12 12:09:54;;;;;;;;;;;3.30;99.90;;;;;;5034853;28;20446;-84
2021/12/12 12:12:44;;;;;;;;;;;3.30;99.90;;;;;;5009489;28;19917;-82
2021/12/12 12:15:12;;;;;;;;;;;3.10;99.90;;;;;;4994398;28;20372;-84
2021/12/12 12:17:44;;;;;;;;;;;3.30;99.90;;;;;;5034868;28;19958;-82
2021/12/12 12:20:16;;;;;;;;;;;3.50;99.90;;;;;;5035172;28;19908;-83
2021/12/12 12:22:46;;;;;;;;;;;3.60;99.90;;;;;;5034622;28;19913;-84
2021/12/12 12:25:17;;;;;;;;;;;3.70;99.90;;;;;;5035192;28;19913;-83
2021/12/12 12:27:55;;;;;;;;;;;3.90;99.90;;;;;;5042122;28;19921;-81
2021/12/12 12:30:30;;;;;;;;;;;4.00;99.90;;;;;;5051416;28;19909;-81
2021/12/12 12:32:58;;;;;;;;;;;3.90;99.90;;;;;;5042735;28;19909;-82
2021/12/12 12:35:42;;;;;;;;;;;3.60;99.90;;;;;;5030996;28;19915;-83
2021/12/12 12:38:20;;;;;;;;;;;3.60;99.90;;;;;;5031446;28;20360;-82
2021/12/12 12:41:04;;;;;;;;;;;3.60;99.90;;;;;;5034738;28;19917;-83
2021/12/12 12:43:48;;;;;;;;;;;3.80;99.90;;;;;;5032684;28;19909;-84
2021/12/12 12:46:32;;;;;;;;;;;3.70;99.90;;;;;;5026881;28;19909;-84
2021/12/12 12:49:06;;;;;;;;;;;3.50;99.90;;;;;;5034991;28;19936;-84
2021/12/12 12:51:51;;;;;;;;;;;3.50;99.90;;;;;;5033188;28;19916;-84
2021/12/12 12:54:17;;;;;;;;;;;3.40;99.90;;;;;;5033077;28;19912;-83
2021/12/12 12:56:54;;;;;;;;;;;3.30;99.90;;;;;;5032418;28;20247;-83
2021/12/12 12:59:38;;;;;;;;;;;3.50;99.90;;;;;;5030526;28;19909;-85
2021/12/12 13:02:11;;;;;;;;;;;3.60;99.90;;;;;;5033453;28;19920;-83
2021/12/12 13:05:12;;;;;;;;;;;3.30;99.90;;;;;;5032546;28;19909;-83
2021/12/12 13:07:40;;;;;;;;;;;3.60;99.90;;;;;;4992097;28;19913;-83
2021/12/12 13:10:18;;;;;;;;;;;3.50;99.90;;;;;;5026124;28;19909;-83
2021/12/12 13:13:02;;;;;;;;;;;3.60;99.90;;;;;;5033335;28;19928;-82
2021/12/12 13:15:44;;;;;;;;;;;3.50;99.90;;;;;;5027091;28;19909;-83
2021/12/12 13:18:28;;;;;;;;;;;3.40;99.90;;;;;;5033590;28;19956;-84
2021/12/12 13:20:57;;;;;;;;;;;3.20;99.90;;;;;;5025829;28;19920;-82
2021/12/12 13:23:38;;;;;;;;;;;3.40;99.90;;;;;;5033253;28;19944;-83
2021/12/12 13:26:11;;;;;;;;;;;3.30;99.90;;;;;;5013962;28;19909;-83
2021/12/12 13:28:56;;;;;;;;;;;3.30;99.90;;;;;;5026223;28;19999;-90
2021/12/12 13:31:27;;;;;;;;;;;3.30;99.90;;;;;;5029589;28;20368;-90
2021/12/12 13:34:11;;;;;;;;;;;3.30;99.90;;;;;;5015798;28;19917;-89
2021/12/12 13:36:42;;;;;;;;;;;3.50;99.90;;;;;;5031424;28;19944;-79
2021/12/12 13:39:08;;;;;;;;;;;3.60;99.90;;;;;;5031773;28;19924;-84
2021/12/12 13:41:37;;;;;;;;;;;3.50;99.90;;;;;;5031372;28;19909;-80
2021/12/12 13:44:05;;;;;;;;;;;3.40;99.90;;;;;;5020888;28;20280;-83
2021/12/12 13:46:39;;;;;;;;;;;3.40;99.90;;;;;;5032860;28;20031;-84
2021/12/12 13:49:08;;;;;;;;;;;3.50;99.90;;;;;;5034551;28;20028;-86
2021/12/12 13:51:46;;;;;;;;;;;3.50;99.90;;;;;;5036038;28;19939;-85
2021/12/12 13:54:24;;;;;;;;;;;3.50;99.90;;;;;;5032675;28;19975;-84
2021/12/12 13:56:52;;;;;;;;;;;3.60;99.90;;;;;;5031865;28;19952;-84
2021/12/12 13:59:50;;;;;;;;;;;3.60;99.90;;;;;;5021098;28;20289;-84
2021/12/12 14:02:16;;;;;;;;;;;3.50;99.90;;;;;;4991160;28;19917;-84
2021/12/12 14:05:01;;;;;;;;;;;3.40;99.90;;;;;;5014194;28;19909;-83
2021/12/12 14:07:30;;;;;;;;;;;3.30;99.90;;;;;;5032515;28;19913;-84
2021/12/12 14:09:58;;;;;;;;;;;3.20;99.90;;;;;;5032381;28;19999;-83
2021/12/12 14:12:26;;;;;;;;;;;3.20;99.90;;;;;;5029984;28;19924;-83
2021/12/12 14:14:55;;;;;;;;;;;3.10;99.90;;;;;;5033549;28;19919;-85
2021/12/12 14:17:31;;;;;;;;;;;3.00;99.90;;;;;;5031754;28;19912;-88
2021/12/12 14:20:02;;;;;;;;;;;2.90;99.90;;;;;;5031823;28;19923;-82
2021/12/12 14:22:28;;;;;;;;;;;3.10;99.90;;;;;;5021550;28;20286;-82
2021/12/12 14:24:59;;;;;;;;;;;3.00;99.90;;;;;;5031929;28;20012;-80
2021/12/12 14:27:26;;;;;;;;;;;3.10;99.90;;;;;;4995778;28;19917;-80
2021/12/12 14:29:52;;;;;;;;;;;3.00;99.90;;;;;;5031572;28;19917;-78
2021/12/12 14:32:32;;;;;;;;;;;2.90;99.90;;;;;;5031540;28;19913;-79
2021/12/12 14:35:03;;;;;;;;;;;2.80;99.90;;;;;;5021972;28;19909;-79
2021/12/12 14:37:31;;;;;;;;;;;2.70;99.90;;;;;;5032008;28;19967;-81
2021/12/12 14:40:08;;;;;;;;;;;2.70;99.90;;;;;;5025877;28;19956;-80
2021/12/12 14:42:34;;;;;;;;;;;2.70;99.90;;;;;;5030854;28;19908;-78
2021/12/12 14:45:20;;;;;;;;;;;2.60;99.90;;;;;;5031289;28;19909;-81
2021/12/12 14:47:47;;;;;;;;;;;2.60;99.90;;;;;;5028555;28;20062;-84
2021/12/12 14:50:13;;;;;;;;;;;2.70;99.90;;;;;;5015617;28;20299;-79
2021/12/12 14:52:40;;;;;;;;;;;2.60;99.90;;;;;;5030905;28;19909;-81
2021/12/12 14:55:13;;;;;;;;;;;2.50;99.90;;;;;;5031100;28;20003;-78
2021/12/12 14:57:40;;;;;;;;;;;2.40;99.90;;;;;;5012330;28;19975;-89
2021/12/12 15:00:12;;;;;;;;;;;2.40;99.90;;;;;;5033961;28;19909;-82
2021/12/12 15:02:40;;;;;;;;;;;2.40;99.90;;;;;;5016349;28;19920;-81
2021/12/12 15:05:15;;;;;;;;;;;2.40;99.90;;;;;;5032597;28;19913;-79